Time;durP1;ratioP1;P1;durP2;ratioP2;P2;SDS_P1;SDS_P2;PMS_P1;PMS_P2;Temp;Humidity;BMP_temperature;BMP_pressure;BME280_temperature;BME280_humidity;BME280_pressure;Samples;Min_cycle;Max_cycle;Signal;HPM_P1;HPM_P2
2023/04/16 00:00:27;;;;;;;21.10;17.20;;;;;;;6.24;100.00;100235.37;107498;1274;22515;-67
2023/04/16 00:02:56;;;;;;;22.00;18.30;;;;;;;6.24;100.00;100234.34;107497;1270;25488;-67
2023/04/16 00:05:26;;;;;;;26.60;18.60;;;;;;;6.24;100.00;100237.20;107757;1269;22573;-67
2023/04/16 00:07:54;;;;;;;21.60;18.10;;;;;;;6.27;100.00;100241.23;107855;1273;23511;-68
2023/04/16 00:10:23;;;;;;;26.10;18.50;;;;;;;6.28;100.00;100241.09;107659;1269;25340;-67
2023/04/16 00:12:51;;;;;;;25.60;18.90;;;;;;;6.30;100.00;100243.45;107589;1276;24253;-67
2023/04/16 00:15:19;;;;;;;22.30;19.30;;;;;;;6.31;100.00;100248.48;107571;1273;24272;-67
2023/04/16 00:17:47;;;;;;;24.70;19.70;;;;;;;6.28;100.00;100249.82;107579;1274;22677;-67
2023/04/16 00:20:16;;;;;;;26.70;19.30;;;;;;;6.29;100.00;100247.52;107715;1270;22549;-67
2023/04/16 00:22:44;;;;;;;24.50;19.80;;;;;;;6.29;100.00;100245.68;107639;1269;22970;-67
2023/04/16 00:25:13;;;;;;;29.50;20.10;;;;;;;6.30;100.00;100246.14;110151;1270;23175;-68
2023/04/16 00:27:41;;;;;;;23.70;20.60;;;;;;;6.31;100.00;100249.46;110349;1270;22900;-68
2023/04/16 00:30:10;;;;;;;27.60;21.10;;;;;;;6.35;100.00;100249.38;110318;1269;22220;-67
2023/04/16 00:32:38;;;;;;;27.20;21.20;;;;;;;6.34;100.00;100253.05;110331;1275;22531;-68
2023/04/16 00:35:07;;;;;;;24.90;20.90;;;;;;;6.39;100.00;100256.69;110372;1275;22287;-68
2023/04/16 00:37:35;;;;;;;28.10;20.40;;;;;;;6.43;100.00;100252.67;110092;1272;22523;-68
2023/04/16 00:40:04;;;;;;;25.50;22.30;;;;;;;6.45;100.00;100253.55;110326;1269;22868;-68
2023/04/16 00:42:33;;;;;;;28.20;21.70;;;;;;;6.44;100.00;100258.89;110387;1274;22981;-68
2023/04/16 00:45:02;;;;;;;28.60;21.00;;;;;;;6.47;100.00;100255.70;110364;1275;22517;-68
2023/04/16 00:47:31;;;;;;;30.20;22.60;;;;;;;6.51;100.00;100261.12;110300;1273;22421;-68
2023/04/16 00:49:59;;;;;;;27.50;22.60;;;;;;;6.49;100.00;100260.55;110371;1274;23020;-68
2023/04/16 00:52:28;;;;;;;28.10;22.20;;;;;;;6.51;100.00;100259.75;110391;1275;22760;-68
2023/04/16 00:54:56;;;;;;;28.70;21.60;;;;;;;6.54;100.00;100256.41;108970;1269;23316;-68
2023/04/16 00:57:24;;;;;;;27.20;21.50;;;;;;;6.54;100.00;100264.15;107532;1257;23236;-67
2023/04/16 00:59:53;;;;;;;31.10;21.20;;;;;;;6.55;100.00;100260.77;107674;1270;23825;-67
2023/04/16 01:02:21;;;;;;;29.40;22.60;;;;;;;6.57;100.00;100260.36;107473;1273;23559;-67
2023/04/16 01:04:50;;;;;;;31.60;23.70;;;;;;;6.58;100.00;100264.80;109805;1270;22205;-67
2023/04/16 01:07:19;;;;;;;35.90;28.50;;;;;;;6.53;100.00;100265.63;110262;1275;22203;-68
2023/04/16 01:09:47;;;;;;;35.40;24.80;;;;;;;6.50;100.00;100267.91;110368;1276;22325;-67
2023/04/16 01:12:16;;;;;;;30.80;23.90;;;;;;;6.51;100.00;100264.73;110224;1275;23111;-68
2023/04/16 01:14:44;;;;;;;32.50;24.20;;;;;;;6.56;100.00;100268.32;110329;1272;22317;-67
2023/04/16 01:17:13;;;;;;;30.40;23.40;;;;;;;6.59;100.00;100263.46;110117;1272;22348;-68
2023/04/16 01:19:42;;;;;;;28.00;23.20;;;;;;;6.56;100.00;100266.57;110289;1270;22283;-68
2023/04/16 01:22:10;;;;;;;29.80;23.20;;;;;;;6.56;100.00;100264.49;110346;1274;22409;-68
2023/04/16 01:24:39;;;;;;;28.40;21.40;;;;;;;6.60;100.00;100266.26;110401;1275;22396;-67
2023/04/16 01:27:10;;;;;;;32.60;21.40;;;;;;;6.63;100.00;100267.51;110286;1275;22213;-67
2023/04/16 01:29:38;;;;;;;29.40;22.70;;;;;;;6.63;100.00;100265.41;110357;1270;22231;-68
2023/04/16 01:32:07;;;;;;;28.40;23.40;;;;;;;6.66;100.00;100265.85;110173;1273;23200;-67
2023/04/16 01:34:39;;;;;;;30.90;22.80;;;;;;;6.64;100.00;100265.77;110354;1274;22495;-67
2023/04/16 01:37:10;;;;;;;33.80;23.70;;;;;;;6.65;100.00;100265.85;110323;1275;22700;-67
2023/04/16 01:39:38;;;;;;;27.20;22.20;;;;;;;6.66;100.00;100265.80;110426;1274;22830;-68
2023/04/16 01:42:07;;;;;;;32.20;23.00;;;;;;;6.63;100.00;100262.91;109545;1270;22610;-67
2023/04/16 01:44:36;;;;;;;27.40;22.30;;;;;;;6.63;100.00;100265.02;107593;1269;25587;-67
2023/04/16 01:47:04;;;;;;;28.70;24.10;;;;;;;6.63;100.00;100267.90;108180;1275;25325;-66
2023/04/16 01:49:32;;;;;;;33.60;24.50;;;;;;;6.57;100.00;100270.21;108106;1273;25350;-67
2023/04/16 01:52:01;;;;;;;28.50;22.50;;;;;;;6.55;100.00;100270.55;107732;1271;25342;-67
2023/04/16 01:54:30;;;;;;;28.80;22.30;;;;;;;6.55;100.00;100270.19;107501;1270;23861;-67
2023/04/16 01:57:00;;;;;;;28.20;22.50;;;;;;;6.54;100.00;100271.48;107612;1269;25681;-68
2023/04/16 01:59:29;;;;;;;27.20;22.00;;;;;;;6.54;100.00;100270.10;107439;1271;22539;-67
2023/04/16 02:02:09;;;;;;;32.40;22.60;;;;;;;6.54;100.00;100265.98;107508;1273;25334;-68
2023/04/16 02:04:40;;;;;;;35.10;22.60;;;;;;;6.48;100.00;100269.42;109072;1269;25337;-68
2023/04/16 02:07:08;;;;;;;26.90;22.80;;;;;;;6.49;100.00;100267.61;107649;1274;23673;-67
2023/04/16 02:09:38;;;;;;;27.40;23.20;;;;;;;6.50;100.00;100270.66;107655;1269;23605;-67
2023/04/16 02:12:08;;;;;;;26.70;22.40;;;;;;;6.52;100.00;100271.34;108767;1274;22673;-67
2023/04/16 02:14:36;;;;;;;30.40;23.60;;;;;;;6.52;100.00;100270.16;107699;1269;22543;-67
2023/04/16 02:17:05;;;;;;;28.40;21.20;;;;;;;6.55;100.00;100270.63;107677;1273;22618;-67
2023/04/16 02:19:43;;;;;;;27.60;22.70;;;;;;;6.56;100.00;100268.27;107522;1275;26480;-67
2023/04/16 02:22:12;;;;;;;30.50;23.80;;;;;;;6.54;100.00;100272.05;107658;1269;24381;-67
2023/04/16 02:24:40;;;;;;;26.30;21.00;;;;;;;6.56;100.00;100270.20;107603;1273;22524;-67
2023/04/16 02:27:10;;;;;;;25.40;21.00;;;;;;;6.58;100.00;100271.34;107561;1269;22652;-67
2023/04/16 02:29:39;;;;;;;34.60;22.70;;;;;;;6.59;100.00;100274.23;107472;1274;23469;-68
2023/04/16 02:32:12;;;;;;;27.40;21.10;;;;;;;6.57;100.00;100280.66;110158;1272;22212;-68
2023/04/16 02:34:42;;;;;;;30.80;22.80;;;;;;;6.58;100.00;100280.81;110373;1274;22389;-68
2023/04/16 02:37:11;;;;;;;25.50;21.20;;;;;;;6.61;100.00;100277.48;110342;1276;23032;-67
2023/04/16 02:39:40;;;;;;;27.60;21.40;;;;;;;6.63;100.00;100278.98;110292;1274;22879;-67
2023/04/16 02:42:08;;;;;;;30.10;22.40;;;;;;;6.65;100.00;100279.85;110385;1270;22405;-68
2023/04/16 02:44:36;;;;;;;27.10;22.00;;;;;;;6.68;100.00;100286.03;110258;1275;22320;-68
2023/04/16 02:47:05;;;;;;;29.00;22.00;;;;;;;6.67;100.00;100288.07;110357;1276;22293;-68
2023/04/16 02:49:34;;;;;;;26.90;20.50;;;;;;;6.70;100.00;100290.98;109616;1270;25427;-67
2023/04/16 02:52:02;;;;;;;25.30;20.40;;;;;;;6.71;100.00;100290.84;107787;1275;22573;-68
2023/04/16 02:54:31;;;;;;;26.80;21.30;;;;;;;6.71;100.00;100290.27;107746;1274;22615;-67
2023/04/16 02:57:01;;;;;;;27.50;21.70;;;;;;;6.68;100.00;100293.52;107551;1276;22510;-68
2023/04/16 02:59:29;;;;;;;27.60;20.80;;;;;;;6.69;100.00;100301.58;107429;1272;22540;-68
2023/04/16 03:01:58;;;;;;;28.00;19.60;;;;;;;6.71;100.00;100308.13;107533;1274;23221;-67
2023/04/16 03:04:26;;;;;;;25.80;19.80;;;;;;;6.70;100.00;100307.83;107471;1269;22544;-66
2023/04/16 03:06:55;;;;;;;23.80;19.00;;;;;;;6.68;100.00;100309.21;107491;1275;25344;-67
2023/04/16 03:09:24;;;;;;;29.50;19.90;;;;;;;6.67;100.00;100309.60;107781;1272;22726;-67
2023/04/16 03:11:52;;;;;;;26.10;19.80;;;;;;;6.66;100.00;100310.73;107694;1269;25314;-67
2023/04/16 03:14:21;;;;;;;24.20;19.50;;;;;;;6.68;100.00;100316.02;107462;1270;24381;-67
2023/04/16 03:16:49;;;;;;;29.30;20.50;;;;;;;6.66;100.00;100316.77;107508;1274;22611;-67
2023/04/16 03:19:17;;;;;;;26.90;20.90;;;;;;;6.58;100.00;100313.81;107409;1273;22684;-67
2023/04/16 03:21:45;;;;;;;29.50;21.20;;;;;;;6.56;100.00;100316.79;110338;1274;23364;-68
2023/04/16 03:24:14;;;;;;;23.40;19.50;;;;;;;6.59;100.00;100322.75;110299;1275;22835;-68
2023/04/16 03:26:42;;;;;;;24.80;19.70;;;;;;;6.59;100.00;100323.67;110371;1275;22337;-67
2023/04/16 03:29:11;;;;;;;26.60;19.50;;;;;;;6.57;100.00;100327.15;110278;1275;22304;-68
2023/04/16 03:31:40;;;;;;;25.30;19.30;;;;;;;6.60;100.00;100328.36;110373;1273;22453;-68
2023/04/16 03:34:08;;;;;;;27.70;19.40;;;;;;;6.63;100.00;100330.77;110190;1272;22805;-68
2023/04/16 03:36:37;;;;;;;24.00;19.10;;;;;;;6.65;100.00;100332.73;110360;1274;22475;-68
2023/04/16 03:39:05;;;;;;;23.90;19.50;;;;;;;6.66;100.00;100338.63;110379;1275;22989;-68
2023/04/16 03:41:34;;;;;;;26.20;18.00;;;;;;;6.68;100.00;100339.34;110331;1276;22272;-68
2023/04/16 03:44:03;;;;;;;20.80;18.50;;;;;;;6.72;100.00;100343.39;110250;1275;22869;-68
2023/04/16 03:46:33;;;;;;;23.00;18.30;;;;;;;6.75;100.00;100341.69;110219;1274;22334;-68
2023/04/16 03:49:01;;;;;;;22.50;17.80;;;;;;;6.77;100.00;100342.32;110397;1274;22235;-67
2023/04/16 03:51:30;;;;;;;25.00;19.40;;;;;;;6.77;100.00;100346.48;110378;1274;22204;-68
2023/04/16 03:53:58;;;;;;;22.80;18.40;;;;;;;6.76;100.00;100346.41;110170;1275;22403;-68
2023/04/16 03:56:27;;;;;;;21.70;17.60;;;;;;;6.77;100.00;100347.35;110335;1275;22343;-68
2023/04/16 03:58:56;;;;;;;23.00;17.50;;;;;;;6.76;100.00;100347.79;110228;1275;22410;-68
2023/04/16 04:01:24;;;;;;;22.70;17.50;;;;;;;6.77;100.00;100347.56;110385;1275;22966;-68
2023/04/16 04:03:53;;;;;;;27.70;18.60;;;;;;;6.80;100.00;100350.05;110329;1273;23154;-68
2023/04/16 04:06:21;;;;;;;22.70;16.80;;;;;;;6.81;100.00;100350.48;110211;1275;22270;-68
2023/04/16 04:08:50;;;;;;;20.90;16.50;;;;;;;6.86;100.00;100346.63;110341;1270;22441;-68
2023/04/16 04:11:19;;;;;;;22.30;17.60;;;;;;;6.93;100.00;100345.64;110228;1272;22773;-68
2023/04/16 04:13:47;;;;;;;23.50;17.90;;;;;;;6.92;100.00;100343.29;110362;1276;22315;-67
2023/04/16 04:16:16;;;;;;;21.10;16.70;;;;;;;6.93;100.00;100341.27;110366;1275;22374;-67
2023/04/16 04:18:45;;;;;;;18.00;15.80;;;;;;;6.90;100.00;100337.70;110274;1274;23214;-68
2023/04/16 04:21:13;;;;;;;22.50;16.30;;;;;;;6.90;100.00;100338.69;110321;1275;22386;-69
2023/04/16 04:23:42;;;;;;;18.20;15.80;;;;;;;6.94;100.00;100344.98;110367;1276;22401;-68
2023/04/16 04:26:11;;;;;;;19.60;16.40;;;;;;;6.98;100.00;100348.81;110236;1272;22360;-69
2023/04/16 04:28:40;;;;;;;23.70;17.10;;;;;;;6.95;100.00;100350.19;109962;1275;22542;-69
2023/04/16 04:31:08;;;;;;;19.20;15.70;;;;;;;6.94;100.00;100355.09;107536;1271;22535;-66
2023/04/16 04:33:36;;;;;;;19.50;15.60;;;;;;;6.91;100.00;100356.48;107841;1274;22277;-66
2023/04/16 04:36:06;;;;;;;21.70;16.40;;;;;;;6.90;100.00;100354.61;107243;1275;24384;-66
2023/04/16 04:38:34;;;;;;;22.50;15.30;;;;;;;6.87;100.00;100355.63;107303;1275;22693;-66
2023/04/16 04:41:04;;;;;;;20.00;15.00;;;;;;;6.86;100.00;100356.42;107443;1276;22535;-66
2023/04/16 04:43:34;;;;;;;22.60;15.60;;;;;;;6.88;100.00;100360.00;107494;1274;22642;-66
2023/04/16 04:46:02;;;;;;;20.90;15.60;;;;;;;6.86;100.00;100363.08;108074;1272;22538;-66
2023/04/16 04:48:31;;;;;;;24.60;15.80;;;;;;;6.83;100.00;100363.20;107709;1269;25334;-66
2023/04/16 04:51:00;;;;;;;20.30;15.40;;;;;;;6.82;100.00;100367.84;107689;1270;24301;-66
2023/04/16 04:53:33;;;;;;;19.60;14.90;;;;;;;6.82;100.00;100368.34;107522;1269;25950;-66
2023/04/16 04:56:01;;;;;;;18.40;14.80;;;;;;;6.85;100.00;100369.27;107563;1270;22919;-66
2023/04/16 04:58:40;;;;;;;22.50;16.10;;;;;;;6.83;100.00;100372.59;107435;1275;26553;-66
2023/04/16 05:01:09;;;;;;;22.70;14.80;;;;;;;6.84;100.00;100375.55;107450;1270;23369;-66
2023/04/16 05:03:37;;;;;;;19.40;14.70;;;;;;;6.83;100.00;100373.27;107601;1269;23602;-67
2023/04/16 05:06:06;;;;;;;22.10;15.00;;;;;;;6.86;100.00;100378.56;107576;1270;26159;-66
2023/04/16 05:08:35;;;;;;;19.50;14.70;;;;;;;6.87;100.00;100385.63;107585;1273;23561;-66
2023/04/16 05:11:03;;;;;;;24.00;14.90;;;;;;;6.90;100.00;100387.70;107559;1273;23277;-66
2023/04/16 05:13:31;;;;;;;21.60;16.00;;;;;;;6.92;100.00;100382.92;107415;1269;25306;-66
2023/04/16 05:16:00;;;;;;;24.60;19.80;;;;;;;6.94;100.00;100388.42;107483;1270;24177;-66
2023/04/16 05:18:29;;;;;;;21.60;16.70;;;;;;;6.94;100.00;100385.89;107571;1274;26493;-67
2023/04/16 05:20:57;;;;;;;18.50;14.30;;;;;;;6.95;100.00;100391.41;107508;1276;26412;-67
2023/04/16 05:23:25;;;;;;;19.40;14.50;;;;;;;6.98;100.00;100390.23;109136;1270;22892;-67
2023/04/16 05:25:54;;;;;;;19.10;13.50;;;;;;;7.00;100.00;100390.28;108361;1272;22556;-66
2023/04/16 05:28:22;;;;;;;17.30;13.60;;;;;;;7.04;100.00;100392.15;107763;1273;25895;-66
2023/04/16 05:30:50;;;;;;;18.90;12.20;;;;;;;7.07;100.00;100394.46;107733;1273;22589;-66
2023/04/16 05:33:19;;;;;;;16.20;12.10;;;;;;;7.06;100.00;100395.23;107833;1275;25443;-66
2023/04/16 05:35:48;;;;;;;15.00;12.20;;;;;;;7.02;100.00;100395.46;107708;1269;23160;-65
2023/04/16 05:38:16;;;;;;;16.80;12.00;;;;;;;7.00;100.00;100397.92;107571;1272;25346;-65
2023/04/16 05:40:45;;;;;;;17.80;13.00;;;;;;;6.99;100.00;100398.09;107757;1269;22524;-65
2023/04/16 05:43:14;;;;;;;13.60;11.70;;;;;;;6.98;100.00;100397.44;107660;1270;22884;-65
2023/04/16 05:45:42;;;;;;;17.00;11.90;;;;;;;7.01;100.00;100399.02;107749;1270;23040;-66
2023/04/16 05:48:11;;;;;;;14.30;11.10;;;;;;;7.04;100.00;100403.52;107387;1276;22579;-67
2023/04/16 05:50:39;;;;;;;15.10;11.00;;;;;;;7.04;100.00;100408.23;107582;1272;23338;-66
2023/04/16 05:53:08;;;;;;;18.70;11.80;;;;;;;7.04;100.00;100411.98;107691;1272;26554;-67
2023/04/16 05:55:36;;;;;;;14.80;10.90;;;;;;;7.02;100.00;100413.66;107522;1269;23496;-67
2023/04/16 05:58:05;;;;;;;15.00;11.10;;;;;;;7.04;100.00;100413.48;107639;1276;22540;-66
2023/04/16 06:00:34;;;;;;;20.50;14.80;;;;;;;7.08;100.00;100416.04;107685;1272;22739;-65
2023/04/16 06:03:03;;;;;;;12.90;9.70;;;;;;;7.10;100.00;100416.04;107735;1270;22533;-66
2023/04/16 06:05:33;;;;;;;14.10;10.00;;;;;;;7.12;100.00;100422.25;108658;1273;22839;-67
2023/04/16 06:08:01;;;;;;;13.80;10.00;;;;;;;7.15;100.00;100426.29;110353;1269;22236;-67
2023/04/16 06:10:30;;;;;;;13.50;9.00;;;;;;;7.22;100.00;100428.39;110367;1268;22264;-66
2023/04/16 06:12:58;;;;;;;11.90;9.50;;;;;;;7.24;100.00;100429.23;110407;1275;22423;-66
2023/04/16 06:15:28;;;;;;;12.60;10.10;;;;;;;7.30;100.00;100428.39;110223;1268;22392;-67
2023/04/16 06:17:56;;;;;;;13.00;9.60;;;;;;;7.34;100.00;100431.05;110333;1270;22564;-67
2023/04/16 06:20:28;;;;;;;14.20;8.60;;;;;;;7.41;100.00;100433.98;110377;1270;23042;-66
2023/04/16 06:22:56;;;;;;;11.50;9.20;;;;;;;7.48;100.00;100433.94;110255;1270;22336;-66
2023/04/16 06:25:24;;;;;;;13.40;9.70;;;;;;;7.54;100.00;100437.73;110234;1269;22399;-66
2023/04/16 06:27:52;;;;;;;20.90;14.00;;;;;;;7.59;100.00;100437.69;110338;1272;22337;-66
2023/04/16 06:30:21;;;;;;;20.90;14.00;;;;;;;7.64;100.00;100440.35;110409;1270;22366;-65
2023/04/16 06:32:49;;;;;;;12.00;9.00;;;;;;;7.66;100.00;100442.85;110392;1273;22249;-68
2023/04/16 06:35:18;;;;;;;14.00;9.20;;;;;;;7.70;100.00;100446.52;110346;1272;23127;-69
2023/04/16 06:37:47;;;;;;;12.40;9.10;;;;;;;7.78;100.00;100447.96;110393;1273;22391;-70
2023/04/16 06:40:15;;;;;;;12.60;9.20;;;;;;;7.83;100.00;100454.52;110311;1273;22296;-67
2023/04/16 06:42:44;;;;;;;11.30;9.20;;;;;;;7.84;100.00;100451.73;110247;1272;22294;-68
2023/04/16 06:45:12;;;;;;;12.00;9.30;;;;;;;7.89;100.00;100457.16;110423;1274;22384;-68
2023/04/16 06:47:41;;;;;;;12.00;9.40;;;;;;;7.93;100.00;100459.48;110354;1268;22428;-67
2023/04/16 06:50:09;;;;;;;11.50;9.20;;;;;;;7.98;100.00;100462.67;110357;1273;23057;-66
2023/04/16 06:52:38;;;;;;;14.00;9.40;;;;;;;8.04;100.00;100462.91;110391;1270;22478;-67
2023/04/16 06:55:08;;;;;;;14.50;9.40;;;;;;;8.12;100.00;100463.97;110286;1274;22260;-68
2023/04/16 06:57:37;;;;;;;13.90;10.30;;;;;;;8.16;100.00;100464.52;110335;1275;22430;-67
2023/04/16 07:00:05;;;;;;;15.80;11.20;;;;;;;8.19;100.00;100468.61;110329;1273;22435;-68
2023/04/16 07:02:34;;;;;;;14.50;10.60;;;;;;;8.22;100.00;100467.16;110393;1275;22276;-67
2023/04/16 07:05:03;;;;;;;15.30;11.20;;;;;;;8.27;100.00;100473.52;110350;1273;22218;-66
2023/04/16 07:07:31;;;;;;;14.30;10.20;;;;;;;8.31;100.00;100475.14;110421;1272;23100;-68
2023/04/16 07:10:00;;;;;;;14.10;11.00;;;;;;;8.35;100.00;100481.31;110378;1273;22333;-68
2023/04/16 07:12:28;;;;;;;18.20;11.00;;;;;;;8.40;100.00;100478.87;110326;1275;22278;-65
2023/04/16 07:14:56;;;;;;;13.20;10.40;;;;;;;8.38;100.00;100480.52;110314;1275;22417;-65
2023/04/16 07:17:25;;;;;;;16.10;11.80;;;;;;;8.26;100.00;100478.10;110358;1275;22745;-65
2023/04/16 07:19:53;;;;;;;17.60;11.00;;;;;;;8.21;100.00;100478.74;110358;1275;22371;-66
2023/04/16 07:22:21;;;;;;;18.20;10.80;;;;;;;8.21;100.00;100479.83;110336;1275;22322;-65
2023/04/16 07:24:50;;;;;;;15.50;10.80;;;;;;;8.25;100.00;100482.24;110244;1275;22220;-66
2023/04/16 07:27:18;;;;;;;14.00;10.70;;;;;;;8.29;100.00;100486.16;110308;1270;22404;-67
2023/04/16 07:29:46;;;;;;;19.20;11.30;;;;;;;8.30;100.00;100480.97;110330;1275;22580;-67
2023/04/16 07:32:15;;;;;;;17.80;11.00;;;;;;;8.34;100.00;100478.52;109042;1270;22528;-66
2023/04/16 07:34:45;;;;;;;17.00;11.50;;;;;;;8.34;100.00;100480.52;108213;1275;24024;-66
2023/04/16 07:37:13;;;;;;;14.90;10.70;;;;;;;8.29;100.00;100480.69;107692;1273;24384;-66
2023/04/16 07:39:41;;;;;;;15.70;11.00;;;;;;;8.26;100.00;100475.55;107814;1275;22516;-65
2023/04/16 07:42:10;;;;;;;17.10;12.50;;;;;;;8.28;100.00;100473.73;107697;1275;23032;-66
2023/04/16 07:44:39;;;;;;;15.60;10.70;;;;;;;8.36;100.00;100473.58;107821;1271;25493;-66
2023/04/16 07:47:08;;;;;;;16.50;11.00;;;;;;;8.40;100.00;100471.09;107367;1276;25434;-67
2023/04/16 07:49:37;;;;;;;15.10;10.60;;;;;;;8.42;100.00;100467.37;107337;1273;22855;-66
2023/04/16 07:52:06;;;;;;;15.00;10.90;;;;;;;8.44;100.00;100469.24;107919;1270;25344;-67
2023/04/16 07:54:35;;;;;;;15.30;10.50;;;;;;;8.42;100.00;100469.25;107694;1273;22968;-66
2023/04/16 07:57:04;;;;;;;15.10;10.80;;;;;;;8.37;100.00;100467.02;107441;1273;25220;-66
2023/04/16 07:59:33;;;;;;;17.80;11.10;;;;;;;8.36;100.00;100466.04;107717;1270;25361;-66
2023/04/16 08:02:01;;;;;;;15.80;11.70;;;;;;;8.41;100.00;100463.31;109938;1271;23847;-67
2023/04/16 08:04:31;;;;;;;17.10;11.60;;;;;;;8.48;100.00;100471.33;109403;1276;22633;-66
2023/04/16 08:07:00;;;;;;;15.60;11.20;;;;;;;8.45;100.00;100466.10;107852;1275;24268;-67
2023/04/16 08:09:29;;;;;;;19.80;12.40;;;;;;;8.48;100.00;100470.13;107732;1276;25327;-67
2023/04/16 08:11:59;;;;;;;17.20;12.00;;;;;;;8.50;100.00;100473.39;107833;1275;22517;-66
2023/04/16 08:14:27;;;;;;;17.80;11.70;;;;;;;8.51;100.00;100472.48;107954;1272;22608;-67
2023/04/16 08:16:56;;;;;;;17.10;12.50;;;;;;;8.50;100.00;100472.29;107814;1269;23202;-67
2023/04/16 08:19:25;;;;;;;22.70;13.60;;;;;;;8.53;100.00;100470.61;107877;1270;24199;-67
2023/04/16 08:21:55;;;;;;;15.90;11.60;;;;;;;8.55;100.00;100474.08;107695;1270;23348;-67
2023/04/16 08:24:23;;;;;;;19.40;12.90;;;;;;;8.62;100.00;100471.55;108533;1273;22472;-67
2023/04/16 08:26:51;;;;;;;17.60;12.90;;;;;;;8.66;100.00;100470.75;110244;1275;23281;-67
2023/04/16 08:29:20;;;;;;;18.20;12.80;;;;;;;8.62;100.00;100467.75;110259;1273;22351;-67
2023/04/16 08:31:53;;;;;;;19.60;13.80;;;;;;;8.54;100.00;100464.87;110143;1270;22616;-67
2023/04/16 08:34:22;;;;;;;20.10;13.50;;;;;;;8.61;100.00;100466.10;110253;1273;22499;-67
2023/04/16 08:36:50;;;;;;;20.00;13.90;;;;;;;8.68;100.00;100467.83;110326;1276;22279;-68
2023/04/16 08:39:20;;;;;;;21.60;14.00;;;;;;;8.71;100.00;100469.77;110305;1276;23179;-68
2023/04/16 08:41:48;;;;;;;21.70;14.00;;;;;;;8.76;100.00;100469.08;108014;1273;22541;-67
2023/04/16 08:44:27;;;;;;;20.50;13.80;;;;;;;8.81;100.00;100469.27;107383;1270;22579;-68
2023/04/16 08:46:57;;;;;;;20.30;12.20;;;;;;;8.72;100.00;100472.03;107023;1276;484845;-67
2023/04/16 08:50:56;;;;;;;22.30;14.30;;;;;;;8.72;100.00;100476.69;104262;1312;545933;-67
2023/04/16 08:53:32;;;;;;;23.20;15.90;;;;;;;8.65;100.00;100471.98;106598;1290;24213;-67
2023/04/16 08:56:01;;;;;;;27.50;21.60;;;;;;;8.62;100.00;100471.39;106650;1282;22555;-66
2023/04/16 08:58:32;;;;;;;20.60;13.60;;;;;;;8.57;100.00;100466.90;106573;1290;22600;-68
2023/04/16 09:01:04;;;;;;;19.80;14.00;;;;;;;8.58;100.00;100467.88;109227;1286;22855;-68
2023/04/16 09:03:32;;;;;;;21.60;14.30;;;;;;;8.53;100.00;100465.34;109457;1283;149095;-68
2023/04/16 09:06:04;;;;;;;21.30;14.00;;;;;;;8.55;100.00;100465.81;109630;1284;22194;-68
2023/04/16 09:08:34;;;;;;;21.40;14.70;;;;;;;8.64;100.00;100464.64;109613;1280;22386;-68
2023/04/16 09:11:02;;;;;;;21.40;14.90;;;;;;;8.69;100.00;100467.73;109576;1280;22347;-68
2023/04/16 09:13:33;;;;;;;21.40;14.60;;;;;;;8.71;100.00;100464.73;109579;1284;23221;-68
2023/04/16 09:16:02;;;;;;;22.50;14.60;;;;;;;8.71;100.00;100465.54;109776;1284;22358;-68
2023/04/16 09:18:31;;;;;;;22.40;14.80;;;;;;;8.71;100.00;100466.41;109423;1283;22523;-67
2023/04/16 09:21:00;;;;;;;27.00;16.10;;;;;;;8.71;100.00;100465.42;109283;1283;22384;-68
2023/04/16 09:23:30;;;;;;;22.80;15.50;;;;;;;8.69;100.00;100468.92;109821;1283;22831;-68
2023/04/16 09:25:59;;;;;;;31.90;23.50;;;;;;;8.69;100.00;100472.66;109959;1280;23138;-68
2023/04/16 09:28:44;;;;;;;24.30;15.70;;;;;;;8.68;100.00;100474.51;109921;1280;22394;-68
2023/04/16 09:31:14;;;;;;;27.20;19.80;;;;;;;8.74;100.00;100474.89;109901;1277;22199;-68
2023/04/16 09:33:44;;;;;;;28.80;19.70;;;;;;;8.74;100.00;100475.42;109970;1281;22621;-67
2023/04/16 09:36:12;;;;;;;39.30;27.90;;;;;;;8.75;100.00;100477.73;109893;1280;22546;-67
2023/04/16 09:38:50;;;;;;;36.10;26.90;;;;;;;8.71;100.00;100482.16;109914;1280;22461;-67
2023/04/16 09:41:23;;;;;;;28.90;22.90;;;;;;;8.67;100.00;100480.38;109867;1281;22383;-67
2023/04/16 09:43:55;;;;;;;27.50;20.80;;;;;;;8.65;100.00;100482.17;109840;1280;23040;-67
2023/04/16 09:46:44;;;;;;;27.50;20.60;;;;;;;8.68;100.00;100487.69;109960;1281;22496;-68
2023/04/16 09:49:14;;;;;;;33.50;25.20;;;;;;;8.70;100.00;100490.16;109861;1280;22346;-67
2023/04/16 09:51:53;;;;;;;37.50;28.10;;;;;;;8.62;100.00;100492.71;109907;1274;22342;-67
2023/04/16 09:54:22;;;;;;;40.10;30.70;;;;;;;8.54;100.00;100492.72;109876;1273;22776;-67
2023/04/16 09:56:50;;;;;;;34.00;27.20;;;;;;;8.53;100.00;100499.63;109766;1273;23817;-67
2023/04/16 09:59:22;;;;;;;36.10;27.10;;;;;;;8.50;100.00;100494.87;109769;1273;22218;-67
2023/04/16 10:01:52;;;;;;;42.50;30.40;;;;;;;8.47;100.00;100499.03;109896;1280;22420;-66
2023/04/16 10:04:46;;;;;;;39.90;28.10;;;;;;;8.52;100.00;100500.98;109837;1280;23289;-67
2023/04/16 10:07:16;;;;;;;37.50;27.00;;;;;;;8.53;100.00;100506.48;109970;1280;23099;-68
2023/04/16 10:09:47;;;;;;;33.30;25.90;;;;;;;8.55;100.00;100505.93;109909;1280;22419;-66
2023/04/16 10:12:16;;;;;;;36.60;28.20;;;;;;;8.58;100.00;100505.55;109934;1273;22333;-67
2023/04/16 10:14:45;;;;;;;47.80;37.60;;;;;;;8.57;100.00;100503.14;109913;1274;22487;-66
2023/04/16 10:17:16;;;;;;;33.80;23.50;;;;;;;8.55;100.00;100508.81;108775;1273;22528;-66
2023/04/16 10:19:45;;;;;;;35.30;22.90;;;;;;;8.57;100.00;100511.60;108331;1260;22596;-66
2023/04/16 10:22:13;;;;;;;35.00;23.40;;;;;;;8.57;100.00;100514.05;107461;1276;22530;-67
2023/04/16 10:24:42;;;;;;;32.20;21.70;;;;;;;8.59;100.00;100514.70;107359;1274;25346;-66
2023/04/16 10:27:12;;;;;;;37.90;24.10;;;;;;;8.62;100.00;100514.21;108080;1274;23454;-67
2023/04/16 10:29:42;;;;;;;38.50;24.60;;;;;;;8.63;100.00;100513.86;107187;1277;25317;-67
2023/04/16 10:32:10;;;;;;;36.00;23.90;;;;;;;8.62;100.00;100516.54;107247;1276;24216;-67
2023/04/16 10:34:40;;;;;;;52.90;36.80;;;;;;;8.60;100.00;100516.34;107239;1276;22605;-67
2023/04/16 10:37:08;;;;;;;44.10;28.20;;;;;;;8.54;100.00;100518.17;107120;1273;22599;-67
2023/04/16 10:39:37;;;;;;;38.50;25.30;;;;;;;8.48;100.00;100519.50;108488;1280;25326;-67
2023/04/16 10:42:08;;;;;;;43.30;29.90;;;;;;;8.47;100.00;100509.52;107505;1274;22520;-67
2023/04/16 10:44:37;;;;;;;46.60;33.00;;;;;;;8.47;100.00;100512.61;107794;1273;22525;-68
2023/04/16 10:47:11;;;;;;;48.30;32.50;;;;;;;8.49;100.00;100516.19;107548;1276;22535;-66
2023/04/16 10:49:40;;;;;;;43.00;30.50;;;;;;;8.55;100.00;100512.98;108431;1274;22658;-67
2023/04/16 10:52:11;;;;;;;41.80;27.30;;;;;;;8.58;100.00;100518.09;107449;1273;25461;-67
2023/04/16 10:54:39;;;;;;;38.80;26.50;;;;;;;8.56;100.00;100514.14;107446;1272;22573;-67
2023/04/16 10:57:13;;;;;;;69.30;50.80;;;;;;;8.58;100.00;100515.88;107608;1270;22563;-67
2023/04/16 10:59:42;;;;;;;39.40;28.00;;;;;;;8.63;100.00;100516.46;107475;1269;26236;-67
2023/04/16 11:02:13;;;;;;;58.00;41.60;;;;;;;8.68;100.00;100516.13;107530;1270;22637;-67
2023/04/16 11:04:43;;;;;;;50.90;36.70;;;;;;;8.67;100.00;100520.14;107773;1270;23873;-67
2023/04/16 11:07:30;;;;;;;46.10;31.40;;;;;;;8.71;100.00;100517.98;109458;1276;24232;-67
2023/04/16 11:10:04;;;;;;;42.60;27.60;;;;;;;8.73;100.00;100524.10;108009;1273;24228;-67
2023/04/16 11:12:36;;;;;;;37.70;27.30;;;;;;;8.75;100.00;100524.13;107488;1273;23769;-67